Time;durP1;ratioP1;P1;durP2;ratioP2;P2;SDS_P1;SDS_P2;PMS_P1;PMS_P2;Temp;Humidity;BMP_temperature;BMP_pressure;BME280_temperature;BME280_humidity;BME280_pressure;Samples;Min_cycle;Max_cycle;Signal;HPM_P1;HPM_P2
2022/09/07 00:01:12;;;;;;;12.13;10.47;;;17.90;99.90;;;;;;6063834;23;20218;-66
2022/09/07 00:03:41;;;;;;;13.67;10.30;;;17.90;99.90;;;;;;6064144;23;20207;-66
2022/09/07 00:06:11;;;;;;;12.57;10.30;;;17.90;99.90;;;;;;6061160;23;20259;-66
2022/09/07 00:08:41;;;;;;;10.67;9.43;;;17.80;99.90;;;;;;6064638;23;20227;-65
2022/09/07 00:11:13;;;;;;;14.30;9.70;;;17.80;99.90;;;;;;6064085;23;20266;-66
2022/09/07 00:13:44;;;;;;;14.60;10.77;;;17.80;99.90;;;;;;6063715;23;20203;-66
2022/09/07 00:16:15;;;;;;;11.30;10.00;;;17.80;99.90;;;;;;6064594;23;20176;-66
2022/09/07 00:18:45;;;;;;;16.03;10.00;;;17.80;99.90;;;;;;6064733;23;20171;-66
2022/09/07 00:21:16;;;;;;;10.33;9.33;;;17.70;99.90;;;;;;6064184;23;20737;-66
2022/09/07 00:23:45;;;;;;;11.60;10.40;;;17.70;99.90;;;;;;6065023;23;20239;-66
2022/09/07 00:26:16;;;;;;;12.10;10.23;;;17.80;99.90;;;;;;6064889;23;20195;-66
2022/09/07 00:28:47;;;;;;;15.93;10.80;;;17.70;99.90;;;;;;6064890;23;20168;-66
2022/09/07 00:31:17;;;;;;;14.57;10.63;;;17.70;99.90;;;;;;6064862;23;20176;-66
2022/09/07 00:33:47;;;;;;;15.10;11.50;;;17.70;99.90;;;;;;6062827;23;20247;-66
2022/09/07 00:36:15;;;;;;;14.93;10.50;;;17.70;99.90;;;;;;6062839;23;20653;-66
2022/09/07 00:38:44;;;;;;;14.13;11.20;;;17.70;99.90;;;;;;6039089;23;20195;-66
2022/09/07 00:41:13;;;;;;;13.13;11.17;;;17.70;99.90;;;;;;6038210;23;20255;-66
2022/09/07 00:43:44;;;;;;;17.43;11.30;;;17.70;99.90;;;;;;6061188;23;20238;-66
2022/09/07 00:46:15;;;;;;;14.33;11.17;;;17.60;99.90;;;;;;6038115;23;20265;-66
2022/09/07 00:48:48;;;;;;;14.07;10.93;;;17.60;99.90;;;;;;6064440;23;20663;-66
2022/09/07 00:51:24;;;;;;;13.10;10.17;;;17.60;99.90;;;;;;6063272;23;20302;-66
2022/09/07 00:53:57;;;;;;;12.37;10.27;;;17.60;99.90;;;;;;6065622;23;20187;-66
2022/09/07 00:56:29;;;;;;;11.70;10.10;;;17.60;99.90;;;;;;6062951;23;20171;-66
2022/09/07 00:58:58;;;;;;;10.90;9.80;;;17.60;99.90;;;;;;6064934;23;20919;-66
2022/09/07 01:01:28;;;;;;;13.17;9.93;;;17.50;99.90;;;;;;6060669;23;20195;-66
2022/09/07 01:04:02;;;;;;;15.57;10.20;;;17.50;99.90;;;;;;6064015;23;20227;-66
2022/09/07 01:06:34;;;;;;;12.60;8.93;;;17.50;99.90;;;;;;6035433;23;21018;-66
2022/09/07 01:09:05;;;;;;;12.67;9.07;;;17.40;99.90;;;;;;6063539;23;20214;-66
2022/09/07 01:11:34;;;;;;;10.00;9.07;;;17.40;99.90;;;;;;6063292;23;20170;-66
2022/09/07 01:14:04;;;;;;;11.90;9.80;;;17.40;99.90;;;;;;6037438;23;20205;-66
2022/09/07 01:16:55;;;;;;;13.60;9.97;;;17.30;99.90;;;;;;6060269;23;20174;-66
2022/09/07 01:19:51;;;;;;;11.17;9.07;;;17.30;99.90;;;;;;6039920;23;20249;-66
2022/09/07 01:22:42;;;;;;;13.30;9.80;;;17.20;99.90;;;;;;6064393;23;20252;-66
2022/09/07 01:25:13;;;;;;;17.60;10.13;;;17.20;99.90;;;;;;6063196;23;20695;-66
2022/09/07 01:28:06;;;;;;;13.70;10.57;;;17.20;99.90;;;;;;6064933;23;20593;-66
2022/09/07 01:30:37;;;;;;;14.10;10.13;;;17.20;99.90;;;;;;6063242;23;20649;-66
2022/09/07 01:33:28;;;;;;;11.93;9.67;;;17.10;99.90;;;;;;6065683;23;20255;-66
2022/09/07 01:36:10;;;;;;;13.47;10.53;;;17.10;99.90;;;;;;6064469;23;20202;-66
2022/09/07 01:38:42;;;;;;;13.87;11.27;;;17.10;99.90;;;;;;6064279;23;20192;-66
2022/09/07 01:41:16;;;;;;;16.07;11.40;;;17.10;99.90;;;;;;6062317;23;20171;-66
2022/09/07 01:43:50;;;;;;;13.40;11.17;;;17.10;99.90;;;;;;6063173;23;20168;-66
2022/09/07 01:46:24;;;;;;;15.27;11.10;;;17.10;99.90;;;;;;6062513;23;20505;-66
2022/09/07 01:48:54;;;;;;;14.03;11.20;;;17.00;99.90;;;;;;6039164;23;20601;-66
2022/09/07 01:51:27;;;;;;;14.40;10.87;;;17.10;99.90;;;;;;6062433;23;20161;-66
2022/09/07 01:54:01;;;;;;;16.60;11.80;;;17.00;99.90;;;;;;6062547;23;20200;-66
2022/09/07 01:56:33;;;;;;;16.77;11.63;;;17.00;99.90;;;;;;6063294;23;20253;-66
2022/09/07 01:59:05;;;;;;;17.23;11.50;;;17.00;99.90;;;;;;6063921;23;20210;-66
2022/09/07 02:01:40;;;;;;;14.07;11.20;;;17.00;99.90;;;;;;6062859;23;20212;-66
2022/09/07 02:04:12;;;;;;;15.03;10.97;;;17.00;99.90;;;;;;6039857;23;20175;-66
2022/09/07 02:06:48;;;;;;;13.57;11.13;;;17.00;99.90;;;;;;6063285;23;20254;-66
2022/09/07 02:09:22;;;;;;;14.83;11.00;;;17.00;99.90;;;;;;6064498;23;20699;-66
2022/09/07 02:11:51;;;;;;;16.60;11.77;;;17.00;99.90;;;;;;6062202;23;20199;-66
2022/09/07 02:14:26;;;;;;;18.27;11.23;;;16.90;99.90;;;;;;6063774;23;20182;-66
2022/09/07 02:17:00;;;;;;;17.90;11.10;;;16.90;99.90;;;;;;6060123;23;20247;-66
2022/09/07 02:19:32;;;;;;;14.30;11.00;;;16.90;99.90;;;;;;6038186;23;20643;-67
2022/09/07 02:22:05;;;;;;;14.97;12.03;;;16.80;99.90;;;;;;6038210;23;20266;-66
2022/09/07 02:24:37;;;;;;;14.40;11.60;;;16.80;99.90;;;;;;6063633;23;20242;-66
2022/09/07 02:27:11;;;;;;;12.23;10.57;;;16.80;99.90;;;;;;6062361;23;20621;-66
2022/09/07 02:29:42;;;;;;;15.57;10.93;;;16.90;99.90;;;;;;6065634;23;20164;-66
2022/09/07 02:32:10;;;;;;;15.27;10.87;;;16.80;99.90;;;;;;6064336;23;20199;-66
2022/09/07 02:34:38;;;;;;;17.73;12.10;;;16.80;99.90;;;;;;6066073;23;20172;-66
2022/09/07 02:37:09;;;;;;;17.57;12.50;;;16.80;99.90;;;;;;6065600;23;20579;-66
2022/09/07 02:39:38;;;;;;;18.33;12.47;;;16.90;99.90;;;;;;6066337;23;20589;-67
2022/09/07 02:42:06;;;;;;;22.03;12.20;;;16.90;99.90;;;;;;6063591;23;20175;-66
2022/09/07 02:44:39;;;;;;;17.40;12.27;;;16.90;99.90;;;;;;6066863;23;20233;-66
2022/09/07 02:47:25;;;;;;;19.23;12.37;;;16.90;99.90;;;;;;6065888;23;20170;-66
2022/09/07 02:50:12;;;;;;;17.00;12.60;;;17.00;99.90;;;;;;6066057;23;20724;-65
2022/09/07 02:52:50;;;;;;;18.70;12.47;;;17.00;99.90;;;;;;6065196;23;20170;-66
2022/09/07 02:55:28;;;;;;;20.43;13.37;;;17.00;99.90;;;;;;6063389;23;20641;-66
2022/09/07 02:58:07;;;;;;;21.73;13.97;;;17.00;99.90;;;;;;6065369;23;20249;-67
2022/09/07 03:00:42;;;;;;;20.00;14.03;;;17.00;99.90;;;;;;6065052;23;20201;-67
2022/09/07 03:03:20;;;;;;;20.83;15.50;;;17.00;99.90;;;;;;6064752;23;20156;-67
2022/09/07 03:05:53;;;;;;;24.23;14.87;;;17.00;99.90;;;;;;6063550;23;20199;-66
2022/09/07 03:08:26;;;;;;;28.50;15.87;;;17.00;99.90;;;;;;6062817;23;20230;-66
2022/09/07 03:10:55;;;;;;;29.50;16.57;;;17.00;99.90;;;;;;6062523;23;20184;-66
2022/09/07 03:13:25;;;;;;;29.23;17.27;;;17.00;99.90;;;;;;6064471;23;20593;-66
2022/09/07 03:15:54;;;;;;;27.17;17.20;;;17.00;99.90;;;;;;6062865;23;20179;-67
2022/09/07 03:18:26;;;;;;;28.70;17.67;;;17.00;99.90;;;;;;6065183;23;20194;-66
2022/09/07 03:20:55;;;;;;;29.80;17.53;;;17.00;99.90;;;;;;6064541;23;20175;-66
2022/09/07 03:23:23;;;;;;;28.07;17.77;;;16.90;99.90;;;;;;6065638;23;20256;-67
2022/09/07 03:25:53;;;;;;;34.47;18.10;;;16.90;99.90;;;;;;6063439;23;20188;-67
2022/09/07 03:28:21;;;;;;;33.03;19.37;;;16.90;99.90;;;;;;6039606;23;20612;-66
2022/09/07 03:30:50;;;;;;;28.83;18.80;;;16.90;99.90;;;;;;6064491;23;20172;-66
2022/09/07 03:33:18;;;;;;;31.10;19.97;;;16.80;99.90;;;;;;6064972;23;20503;-67
2022/09/07 03:35:58;;;;;;;33.77;20.23;;;16.80;99.90;;;;;;6065748;23;20168;-66
2022/09/07 03:38:27;;;;;;;30.77;20.77;;;16.80;99.90;;;;;;6038931;23;20280;-66
2022/09/07 03:40:59;;;;;;;34.33;19.77;;;16.80;99.90;;;;;;6062957;23;20538;-66
2022/09/07 03:43:28;;;;;;;33.83;20.60;;;16.90;99.90;;;;;;6063282;23;20179;-66
2022/09/07 03:45:58;;;;;;;36.27;21.47;;;16.80;99.90;;;;;;6063668;23;20200;-66
2022/09/07 03:48:27;;;;;;;32.20;21.30;;;16.90;99.90;;;;;;6065066;23;20175;-66
2022/09/07 03:50:58;;;;;;;39.47;21.53;;;16.80;99.90;;;;;;6064082;23;20176;-66
2022/09/07 03:53:26;;;;;;;31.40;20.50;;;16.80;99.90;;;;;;6064963;23;20172;-66
2022/09/07 03:55:59;;;;;;;29.33;19.50;;;16.80;99.90;;;;;;6038680;23;20174;-66
2022/09/07 03:58:30;;;;;;;31.27;20.53;;;16.70;99.90;;;;;;6063101;23;20169;-66
2022/09/07 04:01:00;;;;;;;32.53;20.23;;;16.70;99.90;;;;;;6063723;23;20180;-66
2022/09/07 04:03:28;;;;;;;36.00;20.70;;;16.70;99.90;;;;;;6064250;23;20671;-66
2022/09/07 04:06:00;;;;;;;35.70;20.37;;;16.60;99.90;;;;;;6062352;23;20653;-66
2022/09/07 04:08:30;;;;;;;39.30;20.27;;;16.60;99.90;;;;;;6063418;23;20196;-67
2022/09/07 04:11:00;;;;;;;34.20;20.57;;;16.50;99.90;;;;;;6064368;23;20249;-67
2022/09/07 04:13:30;;;;;;;29.27;20.17;;;16.50;99.90;;;;;;6065083;23;20153;-66
2022/09/07 04:15:58;;;;;;;40.10;20.50;;;16.40;99.90;;;;;;6064332;23;20176;-67
2022/09/07 04:18:26;;;;;;;40.47;22.60;;;16.40;99.90;;;;;;6064124;23;20593;-66
2022/09/07 04:21:00;;;;;;;35.53;20.97;;;16.40;99.90;;;;;;6063846;23;20177;-67
2022/09/07 04:23:29;;;;;;;30.93;20.77;;;16.40;99.90;;;;;;6065229;23;20232;-66
2022/09/07 04:25:57;;;;;;;39.33;23.10;;;16.50;99.90;;;;;;6036329;23;20168;-67
2022/09/07 04:28:26;;;;;;;37.53;22.50;;;16.50;99.90;;;;;;6062217;23;20254;-66
2022/09/07 04:30:54;;;;;;;39.30;22.40;;;16.50;99.90;;;;;;6038096;23;20160;-67
2022/09/07 04:33:22;;;;;;;39.43;22.83;;;16.50;99.90;;;;;;6064425;23;20172;-66
2022/09/07 04:35:50;;;;;;;39.73;24.10;;;16.60;99.90;;;;;;6063252;23;20173;-66
2022/09/07 04:38:20;;;;;;;39.87;23.27;;;16.60;99.90;;;;;;6064393;23;20250;-66
2022/09/07 04:40:48;;;;;;;37.63;22.87;;;16.60;99.90;;;;;;6062162;23;20267;-67
2022/09/07 04:43:16;;;;;;;37.23;23.37;;;16.70;99.90;;;;;;6036804;23;20250;-66
2022/09/07 04:45:45;;;;;;;33.57;21.90;;;16.60;99.90;;;;;;6064511;23;20170;-66
2022/09/07 04:48:14;;;;;;;41.20;23.37;;;16.60;99.90;;;;;;6038478;23;20176;-66
2022/09/07 04:50:42;;;;;;;35.10;22.20;;;16.70;99.90;;;;;;6065140;23;20167;-66
2022/09/07 04:53:10;;;;;;;39.90;21.80;;;16.70;99.90;;;;;;6064720;23;20258;-66
2022/09/07 04:55:40;;;;;;;36.57;21.63;;;16.70;99.90;;;;;;6064307;23;20176;-66
2022/09/07 04:58:08;;;;;;;44.50;22.10;;;16.70;99.90;;;;;;6060795;23;20218;-66
2022/09/07 05:00:37;;;;;;;37.67;21.70;;;16.70;99.90;;;;;;6061869;23;20196;-66
2022/09/07 05:03:06;;;;;;;35.13;21.63;;;16.70;99.90;;;;;;6060085;23;20176;-66
2022/09/07 05:05:37;;;;;;;38.33;22.03;;;16.70;99.90;;;;;;6064590;23;20193;-66
2022/09/07 05:08:07;;;;;;;45.87;22.40;;;16.70;99.90;;;;;;6063814;23;20618;-66
2022/09/07 05:10:35;;;;;;;34.10;21.90;;;16.60;99.90;;;;;;6063373;23;20214;-66
2022/09/07 05:13:04;;;;;;;36.27;21.17;;;16.60;99.90;;;;;;6063988;23;20206;-66
2022/09/07 05:15:33;;;;;;;36.47;20.83;;;16.60;99.90;;;;;;6064811;23;20268;-66
2022/09/07 05:18:02;;;;;;;32.07;20.03;;;16.50;99.90;;;;;;6057915;23;20171;-66
2022/09/07 05:20:30;;;;;;;38.60;22.07;;;16.50;99.90;;;;;;6060321;23;20190;-66
2022/09/07 05:22:59;;;;;;;36.90;21.00;;;16.50;99.90;;;;;;6062963;23;20203;-66
2022/09/07 05:25:28;;;;;;;34.20;21.60;;;16.40;99.90;;;;;;6064656;23;20194;-66
2022/09/07 05:27:56;;;;;;;32.90;21.37;;;16.40;99.90;;;;;;6063014;23;20253;-66
2022/09/07 05:30:26;;;;;;;38.47;21.43;;;16.40;99.90;;;;;;6063191;23;20169;-66
2022/09/07 05:33:14;;;;;;;35.97;22.50;;;16.30;99.90;;;;;;6060726;23;20180;-66
2022/09/07 05:35:43;;;;;;;37.97;20.83;;;16.40;99.90;;;;;;6064303;23;20199;-66
2022/09/07 05:38:11;;;;;;;34.17;21.73;;;16.30;99.90;;;;;;6062505;23;20162;-66
2022/09/07 05:40:39;;;;;;;34.00;20.23;;;16.30;99.90;;;;;;6061983;23;20854;-66
2022/09/07 05:43:09;;;;;;;33.03;20.17;;;16.30;99.90;;;;;;6059875;23;20654;-66
2022/09/07 05:45:38;;;;;;;34.53;20.57;;;16.30;99.90;;;;;;6063413;23;20613;-66
2022/09/07 05:48:09;;;;;;;34.37;20.57;;;16.30;99.90;;;;;;6062955;23;20217;-66
2022/09/07 05:50:37;;;;;;;40.43;20.77;;;16.20;99.90;;;;;;6063678;23;20175;-66
2022/09/07 05:53:05;;;;;;;37.37;20.10;;;16.30;99.90;;;;;;6063850;23;20661;-66
2022/09/07 05:55:34;;;;;;;37.77;20.17;;;16.20;99.90;;;;;;6063927;23;20265;-67
2022/09/07 05:58:02;;;;;;;30.80;19.20;;;16.20;99.90;;;;;;6039930;23;20203;-66
2022/09/07 06:00:30;;;;;;;35.23;20.03;;;16.30;99.90;;;;;;6065632;23;20196;-66
2022/09/07 06:03:00;;;;;;;30.73;19.53;;;16.30;99.90;;;;;;6065447;23;20282;-66
2022/09/07 06:05:29;;;;;;;32.00;19.30;;;16.30;99.90;;;;;;6064680;23;20249;-66
2022/09/07 06:07:57;;;;;;;32.00;20.10;;;16.30;99.90;;;;;;6065531;23;20201;-66
2022/09/07 06:10:25;;;;;;;30.57;18.13;;;16.40;99.90;;;;;;6066140;23;20171;-66
2022/09/07 06:13:09;;;;;;;32.27;19.83;;;16.40;99.90;;;;;;6065400;23;20198;-66
2022/09/07 06:15:38;;;;;;;36.43;18.50;;;16.50;99.90;;;;;;6064979;23;20251;-65
2022/09/07 06:18:08;;;;;;;31.67;18.53;;;16.50;99.90;;;;;;6065762;23;20188;-66
2022/09/07 06:20:36;;;;;;;32.97;18.73;;;16.60;99.90;;;;;;6065999;23;20213;-66
2022/09/07 06:23:06;;;;;;;27.87;18.03;;;16.70;99.90;;;;;;6065635;23;20165;-66
2022/09/07 06:25:34;;;;;;;30.90;17.63;;;16.80;99.90;;;;;;6038890;23;20165;-66
2022/09/07 06:28:03;;;;;;;31.60;17.70;;;17.00;99.90;;;;;;6062129;23;20231;-66
2022/09/07 06:30:31;;;;;;;27.10;18.20;;;17.10;99.90;;;;;;6061251;23;20253;-66
2022/09/07 06:32:59;;;;;;;28.30;17.03;;;17.20;99.90;;;;;;6064958;23;20250;-66
2022/09/07 06:35:29;;;;;;;27.47;17.17;;;17.40;99.90;;;;;;6064917;23;20194;-65
2022/09/07 06:37:58;;;;;;;24.50;16.57;;;17.50;99.90;;;;;;6064805;23;20172;-65
2022/09/07 06:40:26;;;;;;;25.10;15.37;;;17.60;99.90;;;;;;6064249;23;20191;-66
2022/09/07 06:42:54;;;;;;;30.60;18.97;;;17.70;99.90;;;;;;6063193;23;20175;-66
2022/09/07 06:45:22;;;;;;;25.00;15.73;;;18.00;99.90;;;;;;6064653;23;20197;-65
2022/09/07 06:47:54;;;;;;;24.23;16.53;;;18.10;99.90;;;;;;6064465;23;20169;-65
2022/09/07 06:50:22;;;;;;;22.30;15.90;;;18.20;99.90;;;;;;6065305;23;20537;-66
2022/09/07 06:52:52;;;;;;;23.37;15.47;;;18.40;99.90;;;;;;6060598;23;20243;-65
2022/09/07 06:55:44;;;;;;;24.20;15.23;;;18.50;99.90;;;;;;6063050;23;20687;-66
2022/09/07 06:58:12;;;;;;;24.77;13.77;;;18.60;99.90;;;;;;6063739;23;20618;-63
2022/09/07 07:00:40;;;;;;;26.40;13.30;;;18.60;99.90;;;;;;6065592;23;20271;-62
2022/09/07 07:03:09;;;;;;;17.27;12.03;;;18.70;99.90;;;;;;6066466;23;20237;-62
2022/09/07 07:05:38;;;;;;;21.83;12.33;;;18.70;99.90;;;;;;6066132;23;20172;-62
2022/09/07 07:08:07;;;;;;;19.47;11.67;;;18.70;99.90;;;;;;6064866;23;20192;-63
2022/09/07 07:10:38;;;;;;;16.13;10.73;;;18.80;99.90;;;;;;6066715;23;20158;-63
2022/09/07 07:13:07;;;;;;;16.60;10.57;;;18.90;99.90;;;;;;6066380;23;20205;-63
2022/09/07 07:15:35;;;;;;;13.43;10.40;;;18.90;99.90;;;;;;6068755;23;20184;-62
2022/09/07 07:18:04;;;;;;;13.73;9.67;;;18.90;99.90;;;;;;6041431;23;20613;-62
2022/09/07 07:20:48;;;;;;;12.97;9.00;;;19.20;99.90;;;;;;6067687;23;20700;-63
2022/09/07 07:23:18;;;;;;;13.50;8.63;;;19.20;99.90;;;;;;6068386;23;20195;-63
2022/09/07 07:25:46;;;;;;;14.47;9.00;;;19.40;99.90;;;;;;6067755;23;20247;-62
2022/09/07 07:28:15;;;;;;;11.33;8.23;;;19.40;99.90;;;;;;6068462;23;20202;-63
2022/09/07 07:31:08;;;;;;;11.00;8.43;;;19.40;99.90;;;;;;6067887;23;20169;-63
2022/09/07 07:33:41;;;;;;;9.33;7.60;;;19.40;99.90;;;;;;6068109;23;20168;-63
2022/09/07 07:36:11;;;;;;;9.20;7.57;;;19.40;99.90;;;;;;6068737;23;20696;-63
2022/09/07 07:38:41;;;;;;;9.70;7.73;;;19.50;99.90;;;;;;6068675;23;20164;-63
2022/09/07 07:41:29;;;;;;;13.53;7.53;;;19.60;99.90;;;;;;6068050;23;20188;-63
2022/09/07 07:44:17;;;;;;;10.00;7.03;;;19.60;99.90;;;;;;6068863;23;20200;-63
2022/09/07 07:46:47;;;;;;;11.60;6.47;;;19.80;99.90;;;;;;6068396;23;20174;-63
2022/09/07 07:49:16;;;;;;;12.43;6.50;;;19.90;99.90;;;;;;6067630;23;20172;-63
2022/09/07 07:51:44;;;;;;;9.37;5.90;;;20.00;99.90;;;;;;6068175;23;20558;-63
2022/09/07 07:54:35;;;;;;;8.23;5.30;;;20.10;99.90;;;;;;6067567;23;20509;-62
2022/09/07 07:57:05;;;;;;;8.43;5.67;;;20.40;99.90;;;;;;6067564;23;20175;-63
2022/09/07 07:59:33;;;;;;;9.03;5.50;;;20.50;99.90;;;;;;6069056;23;20200;-63
2022/09/07 08:02:03;;;;;;;8.13;4.90;;;20.40;99.90;;;;;;6067428;23;20235;-63
2022/09/07 08:04:34;;;;;;;8.33;4.57;;;20.40;99.90;;;;;;6068423;23;20172;-63
2022/09/07 08:07:02;;;;;;;7.13;4.63;;;20.50;99.90;;;;;;6068198;23;20164;-63
2022/09/07 08:09:42;;;;;;;6.97;4.90;;;20.60;99.90;;;;;;6066822;23;20251;-63
2022/09/07 08:12:15;;;;;;;7.00;4.80;;;20.60;99.90;;;;;;6067345;23;20160;-63
2022/09/07 08:14:43;;;;;;;5.90;4.50;;;20.80;99.90;;;;;;6042276;23;20175;-63
2022/09/07 08:17:13;;;;;;;5.83;4.33;;;20.80;99.90;;;;;;6067228;23;20160;-63
2022/09/07 08:19:42;;;;;;;6.53;4.10;;;21.00;99.90;;;;;;6068044;23;20172;-63
2022/09/07 08:22:11;;;;;;;4.50;3.80;;;21.30;99.90;;;;;;6068103;23;20191;-63
2022/09/07 08:24:41;;;;;;;4.00;3.53;;;21.50;99.90;;;;;;6067776;23;20838;-63
2022/09/07 08:27:09;;;;;;;4.93;3.50;;;21.50;99.90;;;;;;6067657;23;20621;-63
2022/09/07 08:29:38;;;;;;;4.73;3.60;;;21.70;99.90;;;;;;6068581;23;20191;-63
2022/09/07 08:32:06;;;;;;;4.00;3.63;;;21.70;99.90;;;;;;6067608;23;20225;-63
2022/09/07 08:34:38;;;;;;;8.73;3.60;;;21.60;99.90;;;;;;6066537;23;20165;-63
2022/09/07 08:37:06;;;;;;;5.83;3.20;;;21.80;99.90;;;;;;6067681;23;20168;-63
2022/09/07 08:39:35;;;;;;;9.53;3.53;;;22.00;99.90;;;;;;6068469;23;20166;-63
2022/09/07 08:42:34;;;;;;;8.17;3.47;;;22.20;99.90;;;;;;6067413;23;20272;-63
2022/09/07 08:45:06;;;;;;;4.47;3.63;;;22.20;99.90;;;;;;6063828;23;20174;-63
2022/09/07 08:47:39;;;;;;;6.37;3.20;;;22.10;99.90;;;;;;6067241;23;20155;-63
2022/09/07 08:50:12;;;;;;;7.53;3.10;;;22.20;99.90;;;;;;6067508;23;20168;-64
2022/09/07 08:52:47;;;;;;;4.73;3.17;;;22.10;99.90;;;;;;6067526;23;20165;-63
2022/09/07 08:55:20;;;;;;;4.80;2.63;;;22.30;99.90;;;;;;6067278;23;20184;-63
2022/09/07 08:57:56;;;;;;;3.20;2.73;;;22.40;99.90;;;;;;6067145;23;20168;-63
2022/09/07 09:00:25;;;;;;;4.90;3.37;;;22.40;99.90;;;;;;6068037;23;20176;-63
2022/09/07 09:02:53;;;;;;;6.53;3.00;;;22.50;99.90;;;;;;6067221;23;20186;-63
2022/09/07 09:05:51;;;;;;;8.30;3.83;;;22.60;99.90;;;;;;6067052;23;20177;-63
2022/09/07 09:08:37;;;;;;;5.07;2.80;;;22.80;99.90;;;;;;6067525;23;20500;-63
2022/09/07 09:11:11;;;;;;;6.50;2.93;;;22.90;99.90;;;;;;6042389;23;20170;-63
2022/09/07 09:13:51;;;;;;;6.73;2.40;;;23.10;99.90;;;;;;6041907;23;20181;-63
2022/09/07 09:16:23;;;;;;;4.50;2.93;;;23.00;99.90;;;;;;6067937;23;20168;-63
2022/09/07 09:19:14;;;;;;;3.60;2.80;;;22.80;99.90;;;;;;6067884;23;20174;-63
2022/09/07 09:21:43;;;;;;;3.73;3.00;;;22.80;99.90;;;;;;6067542;23;20194;-63
2022/09/07 09:24:15;;;;;;;5.57;3.00;;;22.80;99.90;;;;;;6067642;23;20165;-63
2022/09/07 09:26:48;;;;;;;7.07;2.60;;;22.90;99.90;;;;;;6067429;23;20178;-63
2022/09/07 09:29:20;;;;;;;5.17;2.47;;;23.00;99.90;;;;;;6067988;23;20169;-63
2022/09/07 09:31:49;;;;;;;5.73;2.43;;;22.90;99.90;;;;;;6067395;23;20176;-63
2022/09/07 09:34:19;;;;;;;6.77;2.87;;;23.00;99.90;;;;;;6067109;23;20178;-63
2022/09/07 09:36:54;;;;;;;6.83;3.00;;;23.00;99.90;;;;;;6066691;23;20164;-63
2022/09/07 09:39:30;;;;;;;6.53;2.40;;;23.00;99.90;;;;;;6067407;23;20607;-63
2022/09/07 09:42:14;;;;;;;6.40;2.70;;;23.10;99.90;;;;;;6067688;23;20277;-62
2022/09/07 09:44:45;;;;;;;6.97;3.00;;;23.10;99.90;;;;;;6017742;23;20170;-62
2022/09/07 09:47:29;;;;;;;4.40;2.30;;;23.20;99.90;;;;;;6066730;23;20167;-63
2022/09/07 09:50:01;;;;;;;6.80;2.90;;;23.50;99.90;;;;;;6065971;23;20171;-63
2022/09/07 09:52:33;;;;;;;9.77;2.60;;;23.90;99.90;;;;;;6067109;23;20604;-63
2022/09/07 09:55:23;;;;;;;11.43;2.57;;;24.10;99.90;;;;;;6068066;23;20623;-63
2022/09/07 09:58:03;;;;;;;4.23;1.90;;;24.20;99.90;;;;;;6067040;23;20175;-63
2022/09/07 10:01:00;;;;;;;7.70;2.33;;;24.30;99.90;;;;;;6066845;23;20924;-63
2022/09/07 10:03:48;;;;;;;8.87;2.30;;;24.20;99.90;;;;;;6067110;23;20701;-63
2022/09/07 10:06:28;;;;;;;5.27;2.00;;;23.90;99.90;;;;;;6041140;23;20200;-63
2022/09/07 10:08:58;;;;;;;5.20;2.13;;;24.00;99.90;;;;;;6041649;23;20210;-62
2022/09/07 10:11:42;;;;;;;4.27;2.23;;;23.70;99.90;;;;;;6041833;23;20177;-63
2022/09/07 10:14:33;;;;;;;6.10;2.00;;;23.60;99.90;;;;;;6066543;23;20508;-63
2022/09/07 10:17:12;;;;;;;5.00;2.13;;;23.80;99.90;;;;;;6066470;23;20623;-63
2022/09/07 10:19:43;;;;;;;7.07;2.13;;;24.10;99.90;;;;;;6066450;23;20188;-63
2022/09/07 10:22:24;;;;;;;6.90;2.27;;;24.50;99.90;;;;;;6066548;23;20172;-63
2022/09/07 10:24:52;;;;;;;8.17;2.17;;;24.50;99.90;;;;;;6040375;23;20173;-63
2022/09/07 10:27:28;;;;;;;6.40;2.47;;;24.80;99.90;;;;;;6067852;23;20172;-63
2022/09/07 10:29:56;;;;;;;5.28;2.10;;;25.10;99.90;;;;;;6040883;23;20180;-63
2022/09/07 10:32:41;;;;;;;6.75;2.20;;;25.60;99.90;;;;;;6066260;23;20166;-63
2022/09/07 10:35:19;;;;;;;5.65;2.05;;;25.60;99.90;;;;;;6016570;23;20172;-63
2022/09/07 10:37:57;;;;;;;6.95;2.30;;;25.80;99.90;;;;;;6065015;23;20194;-63
2022/09/07 10:40:31;;;;;;;10.55;2.28;;;25.70;99.90;;;;;;6039097;23;20169;-63
2022/09/07 10:43:12;;;;;;;5.88;2.20;;;25.50;99.90;;;;;;6064821;23;20188;-63
2022/09/07 10:46:07;;;;;;;8.77;2.40;;;25.20;99.90;;;;;;6063689;23;20521;-63
2022/09/07 10:48:48;;;;;;;5.67;2.07;;;24.90;99.90;;;;;;6066304;23;20631;-62
2022/09/07 10:51:21;;;;;;;3.57;2.10;;;24.70;99.90;;;;;;6067620;23;20191;-63
2022/09/07 10:53:59;;;;;;;4.20;2.30;;;24.50;99.90;;;;;;6042369;23;20191;-63
2022/09/07 10:56:57;;;;;;;5.47;2.13;;;24.30;99.90;;;;;;6068116;23;20502;-63
2022/09/07 10:59:36;;;;;;;6.43;2.23;;;24.90;99.90;;;;;;6067167;23;20168;-63
2022/09/07 11:02:34;;;;;;;5.07;2.07;;;25.20;99.90;;;;;;6040378;23;20192;-63
2022/09/07 11:05:14;;;;;;;6.43;2.03;;;25.10;99.90;;;;;;6066482;23;20843;-63
2022/09/07 11:08:04;;;;;;;10.10;2.20;;;24.80;99.90;;;;;;6041755;23;20200;-63
2022/09/07 11:10:42;;;;;;;5.50;2.30;;;24.70;99.90;;;;;;6067790;23;20465;-63
2022/09/07 11:13:18;;;;;;;5.80;2.47;;;24.70;99.90;;;;;;6061118;23;20164;-63
2022/09/07 11:15:52;;;;;;;14.60;2.60;;;24.80;99.90;;;;;;6062502;23;20172;-62
2022/09/07 11:18:27;;;;;;;6.87;2.33;;;25.00;99.90;;;;;;6062590;23;20648;-63
2022/09/07 11:21:00;;;;;;;7.67;2.30;;;24.90;99.90;;;;;;6062429;23;20168;-62
2022/09/07 11:23:33;;;;;;;7.30;2.27;;;25.00;99.90;;;;;;6062115;23;20199;-62
2022/09/07 11:26:17;;;;;;;6.67;2.50;;;25.00;99.90;;;;;;6061384;23;20192;-62
2022/09/07 11:28:47;;;;;;;5.57;2.47;;;25.00;99.90;;;;;;6061712;23;20174;-63
2022/09/07 11:31:40;;;;;;;7.07;2.57;;;25.10;99.90;;;;;;6036195;23;20518;-63
2022/09/07 11:34:17;;;;;;;6.20;2.37;;;25.20;99.90;;;;;;6061765;23;20168;-63
2022/09/07 11:37:00;;;;;;;10.13;2.13;;;25.20;99.90;;;;;;6063279;23;20192;-63
2022/09/07 11:39:34;;;;;;;8.40;2.30;;;25.20;99.90;;;;;;6038590;23;20175;-62
2022/09/07 11:42:05;;;;;;;6.77;2.03;;;25.30;99.90;;;;;;6036786;23;20172;-63
2022/09/07 11:45:02;;;;;;;11.83;2.10;;;25.40;99.90;;;;;;6062625;23;20215;-62
2022/09/07 11:47:38;;;;;;;8.33;2.10;;;25.50;99.90;;;;;;6062205;23;20489;-63
2022/09/07 11:50:27;;;;;;;6.60;2.23;;;25.60;99.90;;;;;;6062880;23;20175;-62
2022/09/07 11:53:01;;;;;;;7.13;1.77;;;25.60;99.90;;;;;;6062157;23;20168;-62
2022/09/07 11:55:35;;;;;;;3.87;2.13;;;25.80;99.90;;;;;;6037261;23;20203;-62
2022/09/07 11:58:49;;;;;;;7.00;2.40;;;25.80;99.90;;;;;;6036652;23;20168;-62
2022/09/07 12:01:56;;;;;;;6.67;2.17;;;26.00;99.90;;;;;;6062008;23;20168;-62
2022/09/07 12:04:39;;;;;;;8.70;2.30;;;26.00;99.90;;;;;;6062544;23;20247;-62
2022/09/07 12:07:41;;;;;;;5.90;2.13;;;25.90;99.90;;;;;;6062046;23;20157;-63
2022/09/07 12:10:35;;;;;;;5.13;2.20;;;26.10;99.90;;;;;;6044406;23;20188;-62
2022/09/07 12:13:37;;;;;;;5.30;1.83;;;26.00;99.90;;;;;;6064856;23;20215;-62
2022/09/07 12:16:11;;;;;;;4.57;2.20;;;25.90;99.90;;;;;;6063597;23;20171;-62
2022/09/07 12:19:19;;;;;;;5.07;1.90;;;25.80;99.90;;;;;;6062770;23;20152;-63
2022/09/07 12:21:55;;;;;;;7.00;2.07;;;25.90;99.90;;;;;;6061801;23;20165;-62
2022/09/07 12:24:38;;;;;;;6.20;2.30;;;26.10;99.90;;;;;;6061455;23;20208;-62
2022/09/07 12:27:31;;;;;;;8.00;2.17;;;26.00;99.90;;;;;;6062596;23;20179;-62
2022/09/07 12:30:49;;;;;;;7.57;2.17;;;25.90;99.90;;;;;;6061940;23;20173;-62
2022/09/07 12:33:26;;;;;;;4.00;1.83;;;25.60;99.90;;;;;;6039334;23;20617;-62
2022/09/07 12:35:57;;;;;;;5.23;2.40;;;25.50;99.90;;;;;;6061256;23;20644;-62
2022/09/07 12:39:06;;;;;;;4.83;2.03;;;25.20;99.90;;;;;;6062010;23;20220;-62
2022/09/07 12:41:44;;;;;;;6.03;2.00;;;25.20;99.90;;;;;;6062576;23;20459;-62
2022/09/07 12:44:24;;;;;;;5.80;2.50;;;25.00;99.90;;;;;;6063202;23;20200;-62
2022/09/07 12:47:00;;;;;;;4.40;2.13;;;24.80;99.90;;;;;;6063657;23;20245;-62
2022/09/07 12:49:57;;;;;;;8.87;1.93;;;24.60;99.90;;;;;;6062494;23;20172;-62
2022/09/07 12:52:46;;;;;;;4.80;2.13;;;24.70;99.90;;;;;;6063013;23;20178;-62
2022/09/07 12:55:49;;;;;;;8.70;2.50;;;24.80;99.90;;;;;;6035497;23;20187;-62
2022/09/07 12:58:45;;;;;;;9.00;2.13;;;25.00;99.90;;;;;;6061267;23;20178;-62
2022/09/07 13:01:27;;;;;;;6.47;2.10;;;25.20;99.90;;;;;;6063039;23;20168;-62
2022/09/07 13:04:22;;;;;;;5.27;2.00;;;25.40;99.90;;;;;;6061602;23;20189;-62
2022/09/07 13:07:26;;;;;;;9.70;2.27;;;25.60;99.90;;;;;;6051004;23;20175;-62
2022/09/07 13:09:56;;;;;;;6.77;2.17;;;25.70;99.90;;;;;;6011639;23;20180;-62
2022/09/07 13:12:46;;;;;;;7.47;2.30;;;25.50;99.90;;;;;;6062806;23;20165;-62
2022/09/07 13:15:50;;;;;;;5.87;2.07;;;25.30;99.90;;;;;;6062475;23;20589;-62